DNKN

Mallam Aminu Kano International Airport

Airport
ICAO code
DNKN
IATA Code
KAN
Summary
ICAO Region
AFI
ICAO Territory
Location

Kano, Kano State

Serving
Kano
Elevation
1562 ft
Coordinates
12° 2' 55" N , 8° 31' 20" E
KCC
Metar
Observation
DNKN 091800Z 03004KT 5000 HZ NSC 21/06 Q1017 NOSIG
Station
Kano
Date/Time
2022-12-09 18:00:00
Wind direction
30°
Wind speed
04 kts
Lowest cloud amount
nil significant cloud
Temperature
21°C
Dew point
6°C
Humidity
37%
QNH
1017 hPa
Weather condition
n/a

Mallam Aminu Kano International Airport is an airport serving Kano, the capital city of Kano State of Nigeria.

Climatology

Warm Steppe climate (Köppen climate classification BSh)

Runways

Designator Length Width Surface Rops
5/23 2451 45 ASP Yes/Yes
6/24 3301 60 ASP Yes/Yes

Airport map

Aerial View

SKYbrary Partners:

Safety knowledge contributed by: